sensor_id;sensor_type;location;lat;lon;timestamp;P1;durP1;ratioP1;P2;durP2;ratioP2
39078;SDS011;24829;49.208;12.080;2023-11-21T00:02:13;2.55;;;0.63;;
39078;SDS011;24829;49.208;12.080;2023-11-21T00:04:38;1.90;;;0.60;;
39078;SDS011;24829;49.208;12.080;2023-11-21T00:07:04;3.67;;;0.70;;
39078;SDS011;24829;49.208;12.080;2023-11-21T00:09:31;3.15;;;0.80;;
39078;SDS011;24829;49.208;12.080;2023-11-21T00:11:57;3.38;;;0.98;;
39078;SDS011;24829;49.208;12.080;2023-11-21T00:14:24;2.20;;;0.70;;
39078;SDS011;24829;49.208;12.080;2023-11-21T00:16:50;3.45;;;0.60;;
39078;SDS011;24829;49.208;12.080;2023-11-21T00:19:15;2.00;;;0.50;;
39078;SDS011;24829;49.208;12.080;2023-11-21T00:21:41;3.90;;;0.75;;
39078;SDS011;24829;49.208;12.080;2023-11-21T00:24:09;2.35;;;0.50;;
39078;SDS011;24829;49.208;12.080;2023-11-21T00:26:35;2.08;;;0.60;;
39078;SDS011;24829;49.208;12.080;2023-11-21T00:29:03;3.00;;;0.60;;
39078;SDS011;24829;49.208;12.080;2023-11-21T00:31:28;5.80;;;0.63;;
39078;SDS011;24829;49.208;12.080;2023-11-21T00:33:55;1.85;;;0.60;;
39078;SDS011;24829;49.208;12.080;2023-11-21T00:36:21;3.92;;;0.63;;
39078;SDS011;24829;49.208;12.080;2023-11-21T00:38:47;2.17;;;0.60;;
39078;SDS011;24829;49.208;12.080;2023-11-21T00:41:13;0.70;;;0.60;;
39078;SDS011;24829;49.208;12.080;2023-11-21T00:43:39;4.60;;;0.70;;
39078;SDS011;24829;49.208;12.080;2023-11-21T00:46:05;3.63;;;0.70;;
39078;SDS011;24829;49.208;12.080;2023-11-21T00:48:32;3.03;;;0.90;;
39078;SDS011;24829;49.208;12.080;2023-11-21T00:50:58;3.22;;;0.60;;
39078;SDS011;24829;49.208;12.080;2023-11-21T00:53:24;3.45;;;0.70;;
39078;SDS011;24829;49.208;12.080;2023-11-21T00:55:49;5.00;;;0.70;;
39078;SDS011;24829;49.208;12.080;2023-11-21T00:58:17;2.95;;;0.80;;
39078;SDS011;24829;49.208;12.080;2023-11-21T01:00:42;3.60;;;0.82;;
39078;SDS011;24829;49.208;12.080;2023-11-21T01:03:08;5.43;;;0.70;;
39078;SDS011;24829;49.208;12.080;2023-11-21T01:05:34;3.17;;;0.70;;
39078;SDS011;24829;49.208;12.080;2023-11-21T01:08:00;1.33;;;0.65;;
39078;SDS011;24829;49.208;12.080;2023-11-21T01:10:25;2.20;;;0.60;;
39078;SDS011;24829;49.208;12.080;2023-11-21T01:12:51;3.92;;;0.60;;
39078;SDS011;24829;49.208;12.080;2023-11-21T01:15:17;4.55;;;0.70;;
39078;SDS011;24829;49.208;12.080;2023-11-21T01:17:42;3.33;;;0.60;;
39078;SDS011;24829;49.208;12.080;2023-11-21T01:20:08;4.60;;;0.85;;
39078;SDS011;24829;49.208;12.080;2023-11-21T01:22:37;1.42;;;0.70;;
39078;SDS011;24829;49.208;12.080;2023-11-21T01:25:03;4.55;;;0.70;;
39078;SDS011;24829;49.208;12.080;2023-11-21T01:27:31;2.20;;;0.93;;
39078;SDS011;24829;49.208;12.080;2023-11-21T01:29:57;3.67;;;0.50;;
39078;SDS011;24829;49.208;12.080;2023-11-21T01:32:23;3.78;;;0.70;;
39078;SDS011;24829;49.208;12.080;2023-11-21T01:34:49;2.03;;;0.55;;
39078;SDS011;24829;49.208;12.080;2023-11-21T01:37:15;2.03;;;0.30;;
39078;SDS011;24829;49.208;12.080;2023-11-21T01:39:42;1.38;;;0.60;;
39078;SDS011;24829;49.208;12.080;2023-11-21T01:42:10;1.05;;;0.60;;
39078;SDS011;24829;49.208;12.080;2023-11-21T01:44:37;4.60;;;0.60;;
39078;SDS011;24829;49.208;12.080;2023-11-21T01:47:04;6.63;;;0.70;;
39078;SDS011;24829;49.208;12.080;2023-11-21T01:49:34;2.95;;;0.93;;
39078;SDS011;24829;49.208;12.080;2023-11-21T01:52:01;1.98;;;0.90;;
39078;SDS011;24829;49.208;12.080;2023-11-21T01:54:27;1.40;;;0.90;;
39078;SDS011;24829;49.208;12.080;2023-11-21T01:56:56;2.70;;;1.10;;
39078;SDS011;24829;49.208;12.080;2023-11-21T01:59:27;2.57;;;1.40;;
39078;SDS011;24829;49.208;12.080;2023-11-21T02:02:02;5.32;;;1.40;;
39078;SDS011;24829;49.208;12.080;2023-11-21T02:04:30;5.25;;;2.03;;
39078;SDS011;24829;49.208;12.080;2023-11-21T02:06:59;3.17;;;1.75;;
39078;SDS011;24829;49.208;12.080;2023-11-21T02:09:28;6.35;;;2.03;;
39078;SDS011;24829;49.208;12.080;2023-11-21T02:11:58;6.57;;;1.70;;
39078;SDS011;24829;49.208;12.080;2023-11-21T02:14:27;6.25;;;1.95;;
39078;SDS011;24829;49.208;12.080;2023-11-21T02:16:54;3.78;;;1.48;;
39078;SDS011;24829;49.208;12.080;2023-11-21T02:19:22;2.50;;;1.20;;
39078;SDS011;24829;49.208;12.080;2023-11-21T02:21:50;6.13;;;1.73;;
39078;SDS011;24829;49.208;12.080;2023-11-21T02:24:20;7.25;;;1.85;;
39078;SDS011;24829;49.208;12.080;2023-11-21T02:26:48;6.55;;;1.40;;
39078;SDS011;24829;49.208;12.080;2023-11-21T02:29:16;4.22;;;1.48;;
39078;SDS011;24829;49.208;12.080;2023-11-21T02:31:43;5.47;;;1.15;;
39078;SDS011;24829;49.208;12.080;2023-11-21T02:34:16;6.43;;;1.30;;
39078;SDS011;24829;49.208;12.080;2023-11-21T02:36:43;2.22;;;1.05;;
39078;SDS011;24829;49.208;12.080;2023-11-21T02:39:09;4.28;;;1.38;;
39078;SDS011;24829;49.208;12.080;2023-11-21T02:41:36;3.97;;;1.27;;
39078;SDS011;24829;49.208;12.080;2023-11-21T02:44:02;3.78;;;1.25;;
39078;SDS011;24829;49.208;12.080;2023-11-21T02:46:28;4.72;;;1.20;;
39078;SDS011;24829;49.208;12.080;2023-11-21T02:48:53;7.30;;;1.75;;
39078;SDS011;24829;49.208;12.080;2023-11-21T02:51:19;6.28;;;1.55;;
39078;SDS011;24829;49.208;12.080;2023-11-21T02:53:45;3.00;;;1.30;;
39078;SDS011;24829;49.208;12.080;2023-11-21T02:56:11;3.13;;;1.40;;
39078;SDS011;24829;49.208;12.080;2023-11-21T02:58:37;6.32;;;1.50;;
39078;SDS011;24829;49.208;12.080;2023-11-21T03:01:06;5.03;;;1.30;;
39078;SDS011;24829;49.208;12.080;2023-11-21T03:03:33;6.72;;;1.50;;
39078;SDS011;24829;49.208;12.080;2023-11-21T03:05:58;4.95;;;1.45;;
39078;SDS011;24829;49.208;12.080;2023-11-21T03:08:24;5.65;;;1.20;;
39078;SDS011;24829;49.208;12.080;2023-11-21T03:10:50;7.05;;;1.58;;
39078;SDS011;24829;49.208;12.080;2023-11-21T03:13:15;5.35;;;1.52;;
39078;SDS011;24829;49.208;12.080;2023-11-21T03:15:41;11.05;;;2.20;;
39078;SDS011;24829;49.208;12.080;2023-11-21T03:18:07;9.20;;;2.60;;
39078;SDS011;24829;49.208;12.080;2023-11-21T03:20:33;6.47;;;1.63;;
39078;SDS011;24829;49.208;12.080;2023-11-21T03:22:59;5.30;;;1.70;;
39078;SDS011;24829;49.208;12.080;2023-11-21T03:25:25;8.18;;;1.98;;
39078;SDS011;24829;49.208;12.080;2023-11-21T03:27:51;4.80;;;1.90;;
39078;SDS011;24829;49.208;12.080;2023-11-21T03:30:17;5.88;;;1.67;;
39078;SDS011;24829;49.208;12.080;2023-11-21T03:32:42;5.22;;;1.98;;
39078;SDS011;24829;49.208;12.080;2023-11-21T03:35:08;6.80;;;2.13;;
39078;SDS011;24829;49.208;12.080;2023-11-21T03:37:33;5.20;;;1.88;;
39078;SDS011;24829;49.208;12.080;2023-11-21T03:39:59;9.43;;;2.45;;
39078;SDS011;24829;49.208;12.080;2023-11-21T03:42:25;9.35;;;2.15;;
39078;SDS011;24829;49.208;12.080;2023-11-21T03:44:51;6.13;;;1.85;;
39078;SDS011;24829;49.208;12.080;2023-11-21T03:47:17;8.25;;;2.25;;
39078;SDS011;24829;49.208;12.080;2023-11-21T03:49:44;5.00;;;1.70;;
39078;SDS011;24829;49.208;12.080;2023-11-21T03:52:10;10.98;;;2.50;;
39078;SDS011;24829;49.208;12.080;2023-11-21T03:54:36;9.70;;;2.25;;
39078;SDS011;24829;49.208;12.080;2023-11-21T03:57:02;8.20;;;1.98;;
39078;SDS011;24829;49.208;12.080;2023-11-21T03:59:28;3.72;;;1.40;;
39078;SDS011;24829;49.208;12.080;2023-11-21T04:01:57;6.45;;;2.10;;
39078;SDS011;24829;49.208;12.080;2023-11-21T04:04:22;6.13;;;1.90;;
39078;SDS011;24829;49.208;12.080;2023-11-21T04:06:48;5.40;;;2.25;;
39078;SDS011;24829;49.208;12.080;2023-11-21T04:09:13;4.65;;;1.70;;
39078;SDS011;24829;49.208;12.080;2023-11-21T04:11:39;5.05;;;1.73;;
39078;SDS011;24829;49.208;12.080;2023-11-21T04:14:05;5.18;;;1.75;;
39078;SDS011;24829;49.208;12.080;2023-11-21T04:16:30;5.90;;;1.95;;
39078;SDS011;24829;49.208;12.080;2023-11-21T04:18:56;6.10;;;1.70;;
39078;SDS011;24829;49.208;12.080;2023-11-21T04:21:22;13.70;;;1.77;;
39078;SDS011;24829;49.208;12.080;2023-11-21T04:23:49;6.63;;;1.83;;
39078;SDS011;24829;49.208;12.080;2023-11-21T04:26:14;7.63;;;1.88;;
39078;SDS011;24829;49.208;12.080;2023-11-21T04:28:40;4.57;;;2.55;;
39078;SDS011;24829;49.208;12.080;2023-11-21T04:31:05;12.77;;;3.00;;
39078;SDS011;24829;49.208;12.080;2023-11-21T04:33:32;5.68;;;2.80;;
39078;SDS011;24829;49.208;12.080;2023-11-21T04:35:57;6.30;;;2.40;;
39078;SDS011;24829;49.208;12.080;2023-11-21T04:38:23;5.45;;;2.47;;
39078;SDS011;24829;49.208;12.080;2023-11-21T04:40:49;7.53;;;3.45;;
39078;SDS011;24829;49.208;12.080;2023-11-21T04:43:14;8.68;;;3.53;;
39078;SDS011;24829;49.208;12.080;2023-11-21T04:45:40;8.27;;;2.80;;
39078;SDS011;24829;49.208;12.080;2023-11-21T04:48:06;4.32;;;2.30;;
39078;SDS011;24829;49.208;12.080;2023-11-21T04:50:33;6.93;;;2.28;;
39078;SDS011;24829;49.208;12.080;2023-11-21T04:52:59;5.53;;;1.85;;
39078;SDS011;24829;49.208;12.080;2023-11-21T04:55:24;6.85;;;1.77;;
39078;SDS011;24829;49.208;12.080;2023-11-21T04:57:52;5.72;;;1.55;;
39078;SDS011;24829;49.208;12.080;2023-11-21T05:00:18;5.75;;;1.67;;
39078;SDS011;24829;49.208;12.080;2023-11-21T05:02:44;3.45;;;1.13;;
39078;SDS011;24829;49.208;12.080;2023-11-21T05:05:10;5.57;;;2.13;;
39078;SDS011;24829;49.208;12.080;2023-11-21T05:07:36;4.07;;;1.40;;
39078;SDS011;24829;49.208;12.080;2023-11-21T05:10:02;5.45;;;1.60;;
39078;SDS011;24829;49.208;12.080;2023-11-21T05:12:32;4.63;;;1.50;;
39078;SDS011;24829;49.208;12.080;2023-11-21T05:15:02;7.40;;;1.40;;
39078;SDS011;24829;49.208;12.080;2023-11-21T05:17:34;3.47;;;1.60;;
39078;SDS011;24829;49.208;12.080;2023-11-21T05:20:01;3.80;;;1.45;;
39078;SDS011;24829;49.208;12.080;2023-11-21T05:22:33;4.70;;;2.00;;
39078;SDS011;24829;49.208;12.080;2023-11-21T05:24:59;4.63;;;1.73;;
39078;SDS011;24829;49.208;12.080;2023-11-21T05:27:25;8.30;;;2.00;;
39078;SDS011;24829;49.208;12.080;2023-11-21T05:29:50;4.63;;;1.58;;
39078;SDS011;24829;49.208;12.080;2023-11-21T05:32:16;7.25;;;2.13;;
39078;SDS011;24829;49.208;12.080;2023-11-21T05:34:42;6.43;;;2.33;;
39078;SDS011;24829;49.208;12.080;2023-11-21T05:37:08;8.65;;;2.05;;
39078;SDS011;24829;49.208;12.080;2023-11-21T05:39:34;7.28;;;2.22;;
39078;SDS011;24829;49.208;12.080;2023-11-21T05:42:00;4.90;;;1.95;;
39078;SDS011;24829;49.208;12.080;2023-11-21T05:44:26;6.68;;;2.45;;
39078;SDS011;24829;49.208;12.080;2023-11-21T05:46:52;5.68;;;2.28;;
39078;SDS011;24829;49.208;12.080;2023-11-21T05:49:18;8.93;;;2.63;;
39078;SDS011;24829;49.208;12.080;2023-11-21T05:51:46;7.97;;;2.30;;
39078;SDS011;24829;49.208;12.080;2023-11-21T05:54:12;9.18;;;2.90;;
39078;SDS011;24829;49.208;12.080;2023-11-21T05:56:38;5.88;;;2.53;;
39078;SDS011;24829;49.208;12.080;2023-11-21T05:59:03;8.00;;;2.47;;
39078;SDS011;24829;49.208;12.080;2023-11-21T06:01:29;11.18;;;3.20;;
39078;SDS011;24829;49.208;12.080;2023-11-21T06:03:54;7.78;;;2.65;;
39078;SDS011;24829;49.208;12.080;2023-11-21T06:06:20;9.60;;;3.20;;
39078;SDS011;24829;49.208;12.080;2023-11-21T06:08:48;7.15;;;3.15;;
39078;SDS011;24829;49.208;12.080;2023-11-21T06:11:14;5.07;;;2.55;;
39078;SDS011;24829;49.208;12.080;2023-11-21T06:13:41;6.97;;;3.42;;
39078;SDS011;24829;49.208;12.080;2023-11-21T06:16:07;13.10;;;4.05;;
39078;SDS011;24829;49.208;12.080;2023-11-21T06:18:33;12.60;;;4.85;;
39078;SDS011;24829;49.208;12.080;2023-11-21T06:21:00;8.95;;;4.78;;
39078;SDS011;24829;49.208;12.080;2023-11-21T06:23:25;8.88;;;4.95;;
39078;SDS011;24829;49.208;12.080;2023-11-21T06:25:51;11.05;;;5.30;;
39078;SDS011;24829;49.208;12.080;2023-11-21T06:28:17;9.18;;;5.70;;
39078;SDS011;24829;49.208;12.080;2023-11-21T06:30:43;17.50;;;6.47;;
39078;SDS011;24829;49.208;12.080;2023-11-21T06:33:10;13.02;;;6.57;;
39078;SDS011;24829;49.208;12.080;2023-11-21T06:35:36;14.65;;;6.60;;
39078;SDS011;24829;49.208;12.080;2023-11-21T06:38:01;17.20;;;7.35;;
39078;SDS011;24829;49.208;12.080;2023-11-21T06:40:28;13.82;;;6.97;;
39078;SDS011;24829;49.208;12.080;2023-11-21T06:42:53;18.17;;;8.02;;
39078;SDS011;24829;49.208;12.080;2023-11-21T06:45:19;16.02;;;8.10;;
39078;SDS011;24829;49.208;12.080;2023-11-21T06:47:45;17.15;;;7.80;;
39078;SDS011;24829;49.208;12.080;2023-11-21T06:50:10;13.23;;;8.23;;
39078;SDS011;24829;49.208;12.080;2023-11-21T06:52:36;13.15;;;7.82;;
39078;SDS011;24829;49.208;12.080;2023-11-21T06:55:02;12.85;;;7.38;;
39078;SDS011;24829;49.208;12.080;2023-11-21T06:57:28;16.88;;;7.80;;
39078;SDS011;24829;49.208;12.080;2023-11-21T06:59:54;15.95;;;7.80;;
39078;SDS011;24829;49.208;12.080;2023-11-21T07:02:19;17.70;;;7.53;;
39078;SDS011;24829;49.208;12.080;2023-11-21T07:04:45;15.75;;;7.72;;
39078;SDS011;24829;49.208;12.080;2023-11-21T07:07:11;19.52;;;8.18;;
39078;SDS011;24829;49.208;12.080;2023-11-21T07:09:37;13.65;;;8.35;;
39078;SDS011;24829;49.208;12.080;2023-11-21T07:12:03;17.58;;;8.07;;
39078;SDS011;24829;49.208;12.080;2023-11-21T07:14:32;13.05;;;8.48;;
39078;SDS011;24829;49.208;12.080;2023-11-21T07:17:02;15.60;;;8.73;;
39078;SDS011;24829;49.208;12.080;2023-11-21T07:19:27;12.73;;;7.10;;
39078;SDS011;24829;49.208;12.080;2023-11-21T07:21:54;14.20;;;8.07;;
39078;SDS011;24829;49.208;12.080;2023-11-21T07:24:20;19.60;;;8.55;;
39078;SDS011;24829;49.208;12.080;2023-11-21T07:26:46;14.27;;;7.10;;
39078;SDS011;24829;49.208;12.080;2023-11-21T07:29:13;13.07;;;7.93;;
39078;SDS011;24829;49.208;12.080;2023-11-21T07:31:38;13.65;;;8.45;;
39078;SDS011;24829;49.208;12.080;2023-11-21T07:34:04;17.70;;;9.13;;
39078;SDS011;24829;49.208;12.080;2023-11-21T07:36:30;17.33;;;8.45;;
39078;SDS011;24829;49.208;12.080;2023-11-21T07:38:56;14.95;;;8.18;;
39078;SDS011;24829;49.208;12.080;2023-11-21T07:41:22;14.40;;;9.10;;
39078;SDS011;24829;49.208;12.080;2023-11-21T07:43:47;14.27;;;9.23;;
39078;SDS011;24829;49.208;12.080;2023-11-21T07:46:13;15.70;;;9.00;;
39078;SDS011;24829;49.208;12.080;2023-11-21T07:48:39;17.70;;;8.45;;
39078;SDS011;24829;49.208;12.080;2023-11-21T07:51:06;18.17;;;8.80;;
39078;SDS011;24829;49.208;12.080;2023-11-21T07:53:34;18.10;;;9.25;;
39078;SDS011;24829;49.208;12.080;2023-11-21T07:56:03;14.90;;;8.40;;
39078;SDS011;24829;49.208;12.080;2023-11-21T07:58:30;17.27;;;8.65;;
39078;SDS011;24829;49.208;12.080;2023-11-21T08:00:58;17.70;;;8.25;;
39078;SDS011;24829;49.208;12.080;2023-11-21T08:03:24;14.10;;;7.75;;
39078;SDS011;24829;49.208;12.080;2023-11-21T08:05:51;17.58;;;7.88;;
39078;SDS011;24829;49.208;12.080;2023-11-21T08:08:17;20.45;;;8.10;;
39078;SDS011;24829;49.208;12.080;2023-11-21T08:10:43;14.10;;;7.80;;
39078;SDS011;24829;49.208;12.080;2023-11-21T08:13:19;11.93;;;7.13;;
39078;SDS011;24829;49.208;12.080;2023-11-21T08:15:45;15.00;;;7.82;;
39078;SDS011;24829;49.208;12.080;2023-11-21T08:18:11;13.02;;;7.25;;
39078;SDS011;24829;49.208;12.080;2023-11-21T08:20:38;14.20;;;7.13;;
39078;SDS011;24829;49.208;12.080;2023-11-21T08:23:04;15.50;;;10.00;;
39078;SDS011;24829;49.208;12.080;2023-11-21T08:25:31;37.13;;;21.38;;
39078;SDS011;24829;49.208;12.080;2023-11-21T08:27:57;20.98;;;14.45;;
39078;SDS011;24829;49.208;12.080;2023-11-21T08:30:23;16.85;;;8.55;;
39078;SDS011;24829;49.208;12.080;2023-11-21T08:32:49;9.63;;;5.93;;
39078;SDS011;24829;49.208;12.080;2023-11-21T08:35:17;10.75;;;6.38;;
39078;SDS011;24829;49.208;12.080;2023-11-21T08:37:42;15.55;;;6.65;;
39078;SDS011;24829;49.208;12.080;2023-11-21T08:40:08;15.93;;;7.40;;
39078;SDS011;24829;49.208;12.080;2023-11-21T08:42:37;10.38;;;4.90;;
39078;SDS011;24829;49.208;12.080;2023-11-21T08:45:03;7.85;;;4.38;;
39078;SDS011;24829;49.208;12.080;2023-11-21T08:47:29;10.57;;;4.70;;
39078;SDS011;24829;49.208;12.080;2023-11-21T08:49:55;19.20;;;10.68;;
39078;SDS011;24829;49.208;12.080;2023-11-21T08:52:21;18.00;;;13.40;;
39078;SDS011;24829;49.208;12.080;2023-11-21T08:54:49;13.20;;;6.63;;
39078;SDS011;24829;49.208;12.080;2023-11-21T08:57:21;12.07;;;6.38;;
39078;SDS011;24829;49.208;12.080;2023-11-21T08:59:47;11.70;;;5.93;;
39078;SDS011;24829;49.208;12.080;2023-11-21T09:02:13;13.55;;;7.18;;
39078;SDS011;24829;49.208;12.080;2023-11-21T09:04:38;14.73;;;8.40;;
39078;SDS011;24829;49.208;12.080;2023-11-21T09:07:04;22.00;;;11.20;;
39078;SDS011;24829;49.208;12.080;2023-11-21T09:09:30;14.30;;;8.02;;
39078;SDS011;24829;49.208;12.080;2023-11-21T09:11:55;14.40;;;7.03;;
39078;SDS011;24829;49.208;12.080;2023-11-21T09:14:22;10.80;;;6.13;;
39078;SDS011;24829;49.208;12.080;2023-11-21T09:16:47;13.90;;;7.35;;
39078;SDS011;24829;49.208;12.080;2023-11-21T09:19:14;14.15;;;7.10;;
39078;SDS011;24829;49.208;12.080;2023-11-21T09:21:40;10.65;;;6.47;;
39078;SDS011;24829;49.208;12.080;2023-11-21T09:24:06;12.93;;;7.10;;
39078;SDS011;24829;49.208;12.080;2023-11-21T09:26:34;14.98;;;7.20;;
39078;SDS011;24829;49.208;12.080;2023-11-21T09:28:59;12.98;;;6.47;;
39078;SDS011;24829;49.208;12.080;2023-11-21T09:31:25;11.13;;;6.55;;
39078;SDS011;24829;49.208;12.080;2023-11-21T09:33:52;13.00;;;7.18;;
39078;SDS011;24829;49.208;12.080;2023-11-21T09:36:18;12.75;;;7.40;;
39078;SDS011;24829;49.208;12.080;2023-11-21T09:38:44;18.48;;;8.00;;
39078;SDS011;24829;49.208;12.080;2023-11-21T09:41:19;8.55;;;5.93;;
39078;SDS011;24829;49.208;12.080;2023-11-21T09:43:51;8.90;;;6.30;;
39078;SDS011;24829;49.208;12.080;2023-11-21T09:46:22;12.48;;;6.80;;
39078;SDS011;24829;49.208;12.080;2023-11-21T09:48:50;15.68;;;7.05;;
39078;SDS011;24829;49.208;12.080;2023-11-21T09:51:19;18.40;;;8.90;;
39078;SDS011;24829;49.208;12.080;2023-11-21T09:53:48;13.55;;;7.05;;
39078;SDS011;24829;49.208;12.080;2023-11-21T09:56:17;10.48;;;5.97;;
39078;SDS011;24829;49.208;12.080;2023-11-21T09:58:50;9.35;;;5.72;;
39078;SDS011;24829;49.208;12.080;2023-11-21T10:01:16;9.15;;;6.07;;
39078;SDS011;24829;49.208;12.080;2023-11-21T10:03:43;10.23;;;5.45;;
39078;SDS011;24829;49.208;12.080;2023-11-21T10:06:09;9.00;;;6.18;;
39078;SDS011;24829;49.208;12.080;2023-11-21T10:08:39;7.90;;;5.65;;
39078;SDS011;24829;49.208;12.080;2023-11-21T10:11:06;6.80;;;4.40;;
39078;SDS011;24829;49.208;12.080;2023-11-21T10:13:36;6.93;;;4.60;;
39078;SDS011;24829;49.208;12.080;2023-11-21T10:16:03;7.50;;;4.18;;
39078;SDS011;24829;49.208;12.080;2023-11-21T10:18:32;6.00;;;3.22;;
39078;SDS011;24829;49.208;12.080;2023-11-21T10:20:59;6.20;;;3.45;;
39078;SDS011;24829;49.208;12.080;2023-11-21T10:23:25;10.07;;;4.50;;
39078;SDS011;24829;49.208;12.080;2023-11-21T10:25:52;7.95;;;4.75;;
39078;SDS011;24829;49.208;12.080;2023-11-21T10:28:18;6.75;;;3.30;;
39078;SDS011;24829;49.208;12.080;2023-11-21T10:30:45;7.18;;;3.40;;
39078;SDS011;24829;49.208;12.080;2023-11-21T10:33:11;6.47;;;3.20;;
39078;SDS011;24829;49.208;12.080;2023-11-21T10:35:44;5.43;;;3.58;;
39078;SDS011;24829;49.208;12.080;2023-11-21T10:38:16;7.93;;;3.80;;
39078;SDS011;24829;49.208;12.080;2023-11-21T10:40:49;6.45;;;3.63;;
39078;SDS011;24829;49.208;12.080;2023-11-21T10:43:16;4.97;;;3.63;;
39078;SDS011;24829;49.208;12.080;2023-11-21T10:45:42;5.72;;;2.45;;
39078;SDS011;24829;49.208;12.080;2023-11-21T10:48:14;7.63;;;4.95;;
39078;SDS011;24829;49.208;12.080;2023-11-21T10:53:06;5.80;;;3.45;;
39078;SDS011;24829;49.208;12.080;2023-11-21T10:55:34;7.63;;;4.07;;
39078;SDS011;24829;49.208;12.080;2023-11-21T10:58:01;8.27;;;4.75;;
39078;SDS011;24829;49.208;12.080;2023-11-21T11:00:29;8.20;;;6.00;;
39078;SDS011;24829;49.208;12.080;2023-11-21T11:02:55;11.23;;;6.88;;
39078;SDS011;24829;49.208;12.080;2023-11-21T11:05:25;13.52;;;6.70;;
39078;SDS011;24829;49.208;12.080;2023-11-21T11:08:00;13.50;;;5.65;;
39078;SDS011;24829;49.208;12.080;2023-11-21T11:10:29;18.58;;;10.55;;
39078;SDS011;24829;49.208;12.080;2023-11-21T11:12:55;17.30;;;7.82;;
39078;SDS011;24829;49.208;12.080;2023-11-21T11:15:26;9.60;;;5.18;;
39078;SDS011;24829;49.208;12.080;2023-11-21T11:17:53;22.40;;;12.13;;
39078;SDS011;24829;49.208;12.080;2023-11-21T11:20:23;21.42;;;10.93;;
39078;SDS011;24829;49.208;12.080;2023-11-21T11:28:15;8.48;;;5.80;;
39078;SDS011;24829;49.208;12.080;2023-11-21T11:31:00;8.38;;;4.15;;
39078;SDS011;24829;49.208;12.080;2023-11-21T11:33:43;17.95;;;9.15;;
39078;SDS011;24829;49.208;12.080;2023-11-21T11:36:26;30.83;;;17.02;;
39078;SDS011;24829;49.208;12.080;2023-11-21T11:39:01;14.23;;;6.38;;
39078;SDS011;24829;49.208;12.080;2023-11-21T11:41:29;6.38;;;3.80;;
39078;SDS011;24829;49.208;12.080;2023-11-21T11:43:58;5.05;;;2.53;;
39078;SDS011;24829;49.208;12.080;2023-11-21T11:46:58;4.85;;;2.83;;
39078;SDS011;24829;49.208;12.080;2023-11-21T11:49:24;7.20;;;3.50;;
39078;SDS011;24829;49.208;12.080;2023-11-21T11:55:00;24.92;;;10.60;;
39078;SDS011;24829;49.208;12.080;2023-11-21T11:57:29;15.23;;;8.23;;
39078;SDS011;24829;49.208;12.080;2023-11-21T12:00:10;11.65;;;6.60;;
39078;SDS011;24829;49.208;12.080;2023-11-21T12:02:36;9.20;;;4.72;;
39078;SDS011;24829;49.208;12.080;2023-11-21T12:05:12;6.00;;;3.90;;
39078;SDS011;24829;49.208;12.080;2023-11-21T12:07:42;16.92;;;9.80;;
39078;SDS011;24829;49.208;12.080;2023-11-21T12:10:10;13.00;;;7.40;;
39078;SDS011;24829;49.208;12.080;2023-11-21T12:12:43;4.28;;;3.22;;
39078;SDS011;24829;49.208;12.080;2023-11-21T12:15:10;13.77;;;6.90;;
39078;SDS011;24829;49.208;12.080;2023-11-21T12:17:37;8.85;;;5.32;;
39078;SDS011;24829;49.208;12.080;2023-11-21T12:20:04;12.45;;;5.55;;
39078;SDS011;24829;49.208;12.080;2023-11-21T12:22:31;9.07;;;5.00;;
39078;SDS011;24829;49.208;12.080;2023-11-21T12:24:57;7.32;;;3.33;;
39078;SDS011;24829;49.208;12.080;2023-11-21T12:27:23;5.47;;;3.20;;
39078;SDS011;24829;49.208;12.080;2023-11-21T12:29:48;22.10;;;12.13;;
39078;SDS011;24829;49.208;12.080;2023-11-21T12:32:14;17.55;;;10.02;;
39078;SDS011;24829;49.208;12.080;2023-11-21T12:34:42;10.77;;;5.18;;
39078;SDS011;24829;49.208;12.080;2023-11-21T12:37:08;12.32;;;7.38;;
39078;SDS011;24829;49.208;12.080;2023-11-21T12:39:34;27.02;;;14.40;;
39078;SDS011;24829;49.208;12.080;2023-11-21T12:41:59;7.82;;;4.15;;
39078;SDS011;24829;49.208;12.080;2023-11-21T12:44:25;5.53;;;2.80;;
39078;SDS011;24829;49.208;12.080;2023-11-21T12:46:51;4.88;;;3.15;;
39078;SDS011;24829;49.208;12.080;2023-11-21T12:49:18;31.00;;;15.10;;
39078;SDS011;24829;49.208;12.080;2023-11-21T12:51:46;5.75;;;3.70;;
39078;SDS011;24829;49.208;12.080;2023-11-21T12:54:12;6.53;;;3.58;;
39078;SDS011;24829;49.208;12.080;2023-11-21T12:56:38;4.47;;;2.85;;
39078;SDS011;24829;49.208;12.080;2023-11-21T12:59:04;11.82;;;3.17;;
39078;SDS011;24829;49.208;12.080;2023-11-21T13:01:30;20.75;;;9.30;;
39078;SDS011;24829;49.208;12.080;2023-11-21T13:03:57;47.50;;;20.83;;
39078;SDS011;24829;49.208;12.080;2023-11-21T13:06:27;30.45;;;12.57;;
39078;SDS011;24829;49.208;12.080;2023-11-21T13:08:54;15.00;;;7.63;;
39078;SDS011;24829;49.208;12.080;2023-11-21T13:11:22;11.63;;;5.88;;
39078;SDS011;24829;49.208;12.080;2023-11-21T13:13:47;15.52;;;8.10;;
39078;SDS011;24829;49.208;12.080;2023-11-21T13:16:18;5.95;;;4.15;;
39078;SDS011;24829;49.208;12.080;2023-11-21T13:18:45;9.50;;;4.78;;
39078;SDS011;24829;49.208;12.080;2023-11-21T13:21:11;11.20;;;4.78;;
39078;SDS011;24829;49.208;12.080;2023-11-21T13:23:42;9.93;;;4.13;;
39078;SDS011;24829;49.208;12.080;2023-11-21T13:26:08;4.22;;;3.15;;
39078;SDS011;24829;49.208;12.080;2023-11-21T13:28:35;4.43;;;3.20;;
39078;SDS011;24829;49.208;12.080;2023-11-21T13:31:02;5.72;;;3.22;;
39078;SDS011;24829;49.208;12.080;2023-11-21T13:33:45;7.30;;;3.78;;
39078;SDS011;24829;49.208;12.080;2023-11-21T13:36:16;4.85;;;3.45;;
39078;SDS011;24829;49.208;12.080;2023-11-21T13:38:47;4.90;;;2.78;;
39078;SDS011;24829;49.208;12.080;2023-11-21T13:41:13;4.97;;;3.85;;
39078;SDS011;24829;49.208;12.080;2023-11-21T13:43:39;6.45;;;3.42;;
39078;SDS011;24829;49.208;12.080;2023-11-21T13:46:09;5.47;;;3.28;;
39078;SDS011;24829;49.208;12.080;2023-11-21T13:48:46;6.03;;;3.38;;
39078;SDS011;24829;49.208;12.080;2023-11-21T13:53:48;5.00;;;3.13;;
39078;SDS011;24829;49.208;12.080;2023-11-21T13:56:18;4.90;;;3.47;;
39078;SDS011;24829;49.208;12.080;2023-11-21T13:58:51;3.85;;;2.88;;
39078;SDS011;24829;49.208;12.080;2023-11-21T14:01:18;4.60;;;3.20;;
39078;SDS011;24829;49.208;12.080;2023-11-21T14:04:12;5.68;;;2.78;;
39078;SDS011;24829;49.208;12.080;2023-11-21T14:06:48;3.15;;;2.08;;
39078;SDS011;24829;49.208;12.080;2023-11-21T14:09:17;6.15;;;3.45;;
39078;SDS011;24829;49.208;12.080;2023-11-21T14:12:01;8.32;;;4.28;;
39078;SDS011;24829;49.208;12.080;2023-11-21T14:14:31;12.13;;;4.30;;
39078;SDS011;24829;49.208;12.080;2023-11-21T14:16:57;9.10;;;5.05;;
39078;SDS011;24829;49.208;12.080;2023-11-21T14:19:23;8.48;;;5.80;;
39078;SDS011;24829;49.208;12.080;2023-11-21T14:21:53;7.13;;;4.03;;
39078;SDS011;24829;49.208;12.080;2023-11-21T14:24:18;8.30;;;5.20;;
39078;SDS011;24829;49.208;12.080;2023-11-21T14:26:45;7.50;;;3.60;;
39078;SDS011;24829;49.208;12.080;2023-11-21T14:29:12;5.70;;;3.70;;
39078;SDS011;24829;49.208;12.080;2023-11-21T14:31:41;6.68;;;3.80;;
39078;SDS011;24829;49.208;12.080;2023-11-21T14:34:07;4.53;;;3.80;;
39078;SDS011;24829;49.208;12.080;2023-11-21T14:36:33;6.05;;;3.63;;
39078;SDS011;24829;49.208;12.080;2023-11-21T14:38:59;5.38;;;3.75;;
39078;SDS011;24829;49.208;12.080;2023-11-21T14:41:25;8.25;;;4.78;;
39078;SDS011;24829;49.208;12.080;2023-11-21T14:43:52;15.15;;;5.85;;